Time;durP1;ratioP1;P1;durP2;ratioP2;P2;SDS_P1;SDS_P2;PMS_P1;PMS_P2;Temp;Humidity;BMP_temperature;BMP_pressure;BME280_temperature;BME280_humidity;BME280_pressure;Samples;Min_cycle;Max_cycle;Signal;HPM_P1;HPM_P2
2023/05/09 00:00:26;;;;;;;16.53;6.00;;;;;;;8.47;89.21;101368.27;125241;1086;104355;-76
2023/05/09 00:03:13;;;;;;;17.70;6.50;;;;;;;8.49;89.06;101365.73;125257;1086;104337;-76
2023/05/09 00:05:41;;;;;;;15.67;6.97;;;;;;;8.51;88.98;101369.33;125352;1086;104241;-78
2023/05/09 00:08:10;;;;;;;16.23;7.60;;;;;;;8.51;89.31;101371.95;125275;1086;104242;-78
2023/05/09 00:10:38;;;;;;;14.27;6.73;;;;;;;8.52;88.98;101369.42;125548;1086;104344;-78
2023/05/09 00:13:07;;;;;;;18.60;7.50;;;;;;;8.54;89.33;101370.44;125298;1086;104804;-77
2023/05/09 00:15:35;;;;;;;16.53;6.90;;;;;;;8.56;88.72;101378.38;125339;1086;104372;-78
2023/05/09 00:18:04;;;;;;;20.67;7.87;;;;;;;8.57;88.98;101381.08;125551;1086;104292;-78
2023/05/09 00:20:33;;;;;;;14.10;6.70;;;;;;;8.60;89.55;101378.64;125358;1089;104300;-78
2023/05/09 00:23:01;;;;;;;16.30;6.77;;;;;;;8.62;89.45;101379.62;125403;1089;104260;-78
2023/05/09 00:25:30;;;;;;;14.77;6.87;;;;;;;8.64;89.19;101379.70;125323;1086;104357;-77
2023/05/09 00:27:59;;;;;;;14.80;6.37;;;;;;;8.65;88.77;101381.52;125430;1086;104396;-78
2023/05/09 00:30:28;;;;;;;15.73;6.60;;;;;;;8.66;88.98;101377.17;125395;1086;104296;-77
2023/05/09 00:32:56;;;;;;;13.43;6.30;;;;;;;8.67;89.31;101377.27;125190;1086;104376;-78
2023/05/09 00:35:25;;;;;;;10.53;5.10;;;;;;;8.66;88.70;101379.80;125287;1086;104690;-78
2023/05/09 00:37:54;;;;;;;12.05;5.90;;;;;;;8.64;88.38;101370.13;125245;1086;104379;-78
2023/05/09 00:40:22;;;;;;;12.27;5.50;;;;;;;8.63;88.70;101370.97;125294;1086;104321;-77
2023/05/09 00:42:51;;;;;;;11.73;5.43;;;;;;;8.63;88.60;101370.05;125438;1089;104229;-77
2023/05/09 00:45:20;;;;;;;9.77;5.00;;;;;;;8.63;88.77;101373.58;125303;1089;104414;-76
2023/05/09 00:47:48;;;;;;;12.13;4.70;;;;;;;8.61;87.94;101372.57;125334;1086;104235;-77
2023/05/09 00:50:17;;;;;;;10.63;5.20;;;;;;;8.61;87.94;101367.34;125294;1086;104265;-77
2023/05/09 00:52:45;;;;;;;9.57;4.87;;;;;;;8.61;88.28;101362.11;125417;1086;104238;-78
2023/05/09 00:55:15;;;;;;;10.60;4.80;;;;;;;8.62;88.51;101368.27;125333;1086;104264;-79
2023/05/09 00:57:44;;;;;;;10.23;4.80;;;;;;;8.62;87.85;101365.64;125413;1086;104216;-77
2023/05/09 01:00:15;;;;;;;10.63;4.20;;;;;;;8.62;87.78;101369.16;125371;1086;104263;-78
2023/05/09 01:02:47;;;;;;;9.73;4.50;;;;;;;8.62;88.31;101369.16;125399;1086;104298;-77
2023/05/09 01:05:15;;;;;;;9.33;4.70;;;;;;;8.64;87.56;101377.98;125524;1089;104216;-77
2023/05/09 01:07:54;;;;;;;10.53;4.57;;;;;;;8.66;87.83;101377.17;125423;1086;104354;-77
2023/05/09 01:10:31;;;;;;;11.15;4.90;;;;;;;8.67;88.27;101379.87;125428;1086;104238;-77
2023/05/09 01:13:05;;;;;;;9.00;4.90;;;;;;;8.68;87.81;101384.31;125396;1089;104273;-79
2023/05/09 01:15:36;;;;;;;;;;;;;;;8.68;87.39;101383.39;125447;1086;104239;-76
2023/05/09 01:18:11;;;;;;;10.73;4.70;;;;;;;8.68;87.60;101380.77;125464;1086;107151;-79
2023/05/09 01:20:45;;;;;;;11.37;4.90;;;;;;;8.68;87.99;101383.39;125340;1086;104270;-76
2023/05/09 01:23:43;;;;;;;14.13;4.80;;;;;;;8.68;87.32;101380.77;125260;1086;104293;-77
2023/05/09 01:26:18;;;;;;;9.60;4.70;;;;;;;8.69;87.26;101382.59;125278;1090;104795;-78
2023/05/09 01:29:26;;;;;;;9.43;4.50;;;;;;;8.69;87.79;101386.09;125357;1086;104222;-78
2023/05/09 01:31:56;;;;;;;12.07;4.47;;;;;;;8.69;87.26;101382.59;125191;1086;104516;-77
2023/05/09 01:34:28;;;;;;;10.67;4.70;;;;;;;8.68;87.54;101386.00;125316;1086;104303;-77
2023/05/09 01:36:59;;;;;;;11.87;4.70;;;;;;;8.66;87.53;101374.56;125348;1086;104299;-77
2023/05/09 01:39:31;;;;;;;11.67;4.47;;;;;;;8.66;87.71;101390.26;125421;1086;104217;-77
2023/05/09 01:42:03;;;;;;;13.77;4.83;;;;;;;8.63;87.51;101388.36;125364;1086;104319;-78
2023/05/09 01:44:38;;;;;;;10.53;4.90;;;;;;;8.62;86.76;101397.04;125461;1086;104385;-77
2023/05/09 01:47:08;;;;;;;12.43;4.93;;;;;;;8.60;87.42;101398.64;125332;1090;104302;-78
2023/05/09 01:49:39;;;;;;;9.10;5.03;;;;;;;8.58;86.83;101395.94;125314;1089;104214;-77
2023/05/09 01:52:11;;;;;;;11.10;4.53;;;;;;;8.56;87.67;101394.95;125398;1086;104303;-78
2023/05/09 01:54:41;;;;;;;9.43;4.43;;;;;;;8.54;87.45;101400.90;125285;1087;104344;-78
2023/05/09 01:57:11;;;;;;;8.30;4.80;;;;;;;8.53;87.56;101399.12;125220;1089;104458;-77
2023/05/09 01:59:42;;;;;;;11.17;5.60;;;;;;;8.50;87.14;101397.22;125156;1087;104433;-77
2023/05/09 02:02:11;;;;;;;10.15;4.85;;;;;;;8.49;87.34;101403.25;125389;1087;104241;-78
2023/05/09 02:04:42;;;;;;;10.83;4.60;;;;;;;8.48;87.38;101398.85;125333;1086;104298;-78
2023/05/09 02:07:12;;;;;;;9.27;5.03;;;;;;;8.46;87.60;101392.60;125152;1086;104350;-78
2023/05/09 02:09:40;;;;;;;12.13;5.10;;;;;;;8.44;87.34;101389.01;125217;1086;104296;-79
2023/05/09 02:12:09;;;;;;;9.27;4.77;;;;;;;8.43;87.45;101395.97;125333;1087;104338;-77
2023/05/09 02:14:38;;;;;;;14.53;5.47;;;;;;;8.42;87.52;101395.84;125300;1089;104682;-77
2023/05/09 02:17:08;;;;;;;10.60;5.03;;;;;;;8.42;88.02;101399.34;125159;1087;104267;-77
2023/05/09 02:19:39;;;;;;;10.37;5.10;;;;;;;8.42;87.77;101398.45;125221;1086;104325;-77
2023/05/09 02:22:08;;;;;;;12.30;5.67;;;;;;;8.41;87.67;101401.88;125149;1086;104321;-77
2023/05/09 02:24:37;;;;;;;12.17;5.30;;;;;;;8.39;87.96;101396.55;125127;1086;104400;-78
2023/05/09 02:27:06;;;;;;;8.85;4.95;;;;;;;8.38;87.97;101399.08;125172;1086;104257;-78
2023/05/09 02:29:39;;;;;;;8.23;4.80;;;;;;;8.38;87.68;101396.46;125174;1086;104218;-77
2023/05/09 02:32:10;;;;;;;12.90;5.30;;;;;;;8.34;88.74;101394.50;125210;1086;104268;-78
2023/05/09 02:34:40;;;;;;;13.57;6.07;;;;;;;8.28;89.11;101401.14;125281;1086;104241;-77
2023/05/09 02:37:10;;;;;;;8.43;5.07;;;;;;;8.21;89.25;101395.45;125298;1089;104691;-76
2023/05/09 02:39:39;;;;;;;11.47;5.77;;;;;;;8.17;89.62;101388.27;125087;1089;104379;-77
2023/05/09 02:42:09;;;;;;;9.07;4.80;;;;;;;8.10;90.00;101390.52;125168;1089;104273;-75
2023/05/09 02:44:38;;;;;;;11.60;5.33;;;;;;;8.06;90.36;101392.84;125061;1086;104539;-76
2023/05/09 02:47:07;;;;;;;11.63;4.90;;;;;;;8.01;90.32;101391.65;125200;1086;104382;-78
2023/05/09 02:49:36;;;;;;;11.60;5.80;;;;;;;7.96;90.00;101390.48;125074;1086;105913;-76
2023/05/09 02:52:05;;;;;;;10.43;5.13;;;;;;;7.91;91.86;101393.70;125080;1086;104456;-74
2023/05/09 02:54:34;;;;;;;11.97;5.40;;;;;;;7.87;90.90;101390.84;125068;1086;104692;-76
2023/05/09 02:57:02;;;;;;;11.47;5.30;;;;;;;7.83;92.52;101388.84;125275;1089;104255;-76
2023/05/09 02:59:31;;;;;;;10.93;5.10;;;;;;;7.82;91.16;101389.64;125193;1086;104298;-76
2023/05/09 03:02:02;;;;;;;13.65;5.95;;;;;;;7.81;90.80;101388.75;125253;1089;104238;-77
2023/05/09 03:04:31;;;;;;;11.03;5.87;;;;;;;7.82;90.67;101395.79;125354;1086;104350;-77
2023/05/09 03:07:01;;;;;;;13.07;5.70;;;;;;;7.84;90.10;101398.50;125123;1087;104459;-77
2023/05/09 03:09:32;;;;;;;14.20;5.73;;;;;;;7.87;90.21;101389.13;125172;1086;104351;-77
2023/05/09 03:12:02;;;;;;;11.30;5.60;;;;;;;7.91;90.12;101396.31;125114;1087;104371;-77
2023/05/09 03:14:31;;;;;;;12.27;5.90;;;;;;;7.91;90.11;101401.55;125081;1089;104615;-77
2023/05/09 03:17:00;;;;;;;13.77;6.20;;;;;;;7.90;89.61;101397.14;124965;1086;104260;-77
2023/05/09 03:19:33;;;;;;;12.23;6.00;;;;;;;7.92;89.65;101394.62;125115;1089;104319;-78
2023/05/09 03:22:02;;;;;;;12.90;5.83;;;;;;;7.88;89.65;101384.78;125072;1086;104305;-78
2023/05/09 03:24:32;;;;;;;14.37;5.97;;;;;;;7.99;90.16;101396.78;124940;1086;104321;-78
2023/05/09 03:27:01;;;;;;;12.43;5.63;;;;;;;8.01;89.66;101405.64;125175;1087;104580;-77
2023/05/09 03:29:29;;;;;;;11.93;5.70;;;;;;;8.00;89.80;101401.21;125026;1087;104474;-77
2023/05/09 03:31:58;;;;;;;10.90;5.60;;;;;;;8.04;89.91;101402.28;125101;1086;104254;-77
2023/05/09 03:34:26;;;;;;;12.20;6.30;;;;;;;8.05;89.90;101410.22;125135;1086;104353;-78
2023/05/09 03:36:55;;;;;;;10.53;5.57;;;;;;;8.03;89.55;101414.47;125256;1086;104261;-78
2023/05/09 03:39:23;;;;;;;13.17;6.50;;;;;;;8.02;90.11;101409.14;125190;1086;104379;-77
2023/05/09 03:41:55;;;;;;;13.70;6.07;;;;;;;8.03;89.85;101410.96;125301;1086;104235;-77
2023/05/09 03:44:24;;;;;;;15.67;6.97;;;;;;;8.04;90.08;101418.89;125093;1086;104219;-79
2023/05/09 03:46:52;;;;;;;15.17;6.50;;;;;;;8.04;90.01;101415.36;125220;1086;104373;-77
2023/05/09 03:49:21;;;;;;;12.60;6.57;;;;;;;8.04;89.31;101415.36;125131;1089;104430;-78
2023/05/09 03:51:51;;;;;;;12.13;6.20;;;;;;;8.05;89.33;101422.40;125176;1086;104309;-77
2023/05/09 03:54:20;;;;;;;14.17;5.87;;;;;;;8.06;89.78;101424.22;125087;1086;104721;-77
2023/05/09 03:56:49;;;;;;;13.03;5.60;;;;;;;8.06;89.26;101418.98;125366;1086;104283;-77
2023/05/09 03:59:17;;;;;;;12.93;5.57;;;;;;;8.08;89.52;101419.97;125309;1086;104724;-79
2023/05/09 04:01:46;;;;;;;13.50;5.87;;;;;;;8.09;89.56;101432.25;125441;1086;104357;-79
2023/05/09 04:04:15;;;;;;;12.73;6.07;;;;;;;8.09;89.42;101429.63;125422;1090;104283;-78
2023/05/09 04:06:45;;;;;;;12.33;5.40;;;;;;;8.08;89.53;101422.59;125327;1086;104296;-79
2023/05/09 04:09:14;;;;;;;10.63;5.23;;;;;;;8.07;89.16;101423.38;125286;1089;104165;-78
2023/05/09 04:11:43;;;;;;;12.50;5.67;;;;;;;8.07;89.21;101424.31;125390;1086;104347;-78
2023/05/09 04:14:13;;;;;;;13.70;5.20;;;;;;;8.08;89.47;101430.43;125186;1086;104264;-76
2023/05/09 04:16:42;;;;;;;13.50;5.37;;;;;;;8.08;89.40;101433.05;125260;1089;104232;-77
2023/05/09 04:19:11;;;;;;;11.00;5.60;;;;;;;8.12;89.25;101432.43;125152;1089;104221;-78
2023/05/09 04:21:39;;;;;;;12.50;5.10;;;;;;;8.12;88.79;101427.20;125353;1089;104624;-77
2023/05/09 04:24:08;;;;;;;11.53;5.33;;;;;;;8.13;89.04;101431.59;125215;1089;104358;-78
2023/05/09 04:26:41;;;;;;;11.40;5.90;;;;;;;8.14;89.22;101432.52;125302;1086;104315;-76
2023/05/09 04:29:12;;;;;;;13.70;5.80;;;;;;;8.16;89.14;101434.40;125169;1086;104325;-78
2023/05/09 04:31:41;;;;;;;10.67;5.43;;;;;;;8.19;88.57;101434.59;125296;1086;111288;-78
2023/05/09 04:34:11;;;;;;;12.37;5.80;;;;;;;8.21;89.12;101432.98;125274;1089;104312;-78
2023/05/09 04:36:39;;;;;;;11.23;5.77;;;;;;;8.25;88.79;101434.06;125146;1086;104238;-77
2023/05/09 04:39:09;;;;;;;8.80;5.13;;;;;;;8.28;88.81;101437.75;125037;1090;104312;-77
2023/05/09 04:41:38;;;;;;;13.33;5.70;;;;;;;8.33;88.96;101430.19;125206;1086;104353;-77
2023/05/09 04:44:07;;;;;;;11.60;5.90;;;;;;;8.40;88.84;101436.70;125200;1089;104270;-77
2023/05/09 04:46:36;;;;;;;11.30;4.97;;;;;;;8.49;88.70;101438.98;125241;1089;104628;-77
2023/05/09 04:49:05;;;;;;;9.93;5.10;;;;;;;8.54;89.08;101432.30;125349;1090;104409;-77
2023/05/09 04:51:33;;;;;;;11.40;5.37;;;;;;;8.59;88.49;101431.77;125118;1089;104309;-76
2023/05/09 04:54:02;;;;;;;8.33;4.70;;;;;;;8.64;87.34;101430.30;125085;1089;104386;-76
2023/05/09 04:56:33;;;;;;;10.87;4.93;;;;;;;8.70;88.02;101435.01;125312;1087;104334;-78
2023/05/09 04:59:02;;;;;;;11.77;4.70;;;;;;;8.76;88.22;101431.86;125368;1089;104238;-76
2023/05/09 05:01:31;;;;;;;12.33;5.03;;;;;;;8.82;87.98;101434.83;125134;1089;104359;-76
2023/05/09 05:04:00;;;;;;;9.37;4.70;;;;;;;8.88;88.12;101429.95;125355;1086;104772;-75
2023/05/09 05:06:28;;;;;;;9.50;4.70;;;;;;;8.95;88.54;101439.05;125327;1089;104730;-77
2023/05/09 05:08:57;;;;;;;8.93;4.73;;;;;;;9.00;88.81;101438.47;125386;1086;104350;-76
2023/05/09 05:11:26;;;;;;;9.70;4.80;;;;;;;9.06;88.73;101439.66;125021;1089;104324;-75
2023/05/09 05:13:55;;;;;;;10.17;5.07;;;;;;;9.10;88.51;101437.30;125135;1086;104676;-78
2023/05/09 05:16:23;;;;;;;10.77;5.17;;;;;;;9.15;88.63;101435.83;125108;1089;104334;-77
2023/05/09 05:18:52;;;;;;;14.07;4.70;;;;;;;9.18;88.82;101437.73;125143;1086;104238;-77
2023/05/09 05:21:21;;;;;;;10.07;4.60;;;;;;;9.22;88.79;101442.31;125121;1086;104372;-78
2023/05/09 05:23:50;;;;;;;9.33;5.00;;;;;;;9.25;88.51;101441.59;125210;1086;104241;-78
2023/05/09 05:26:19;;;;;;;11.60;5.37;;;;;;;9.25;88.39;101439.86;125250;1087;104277;-78
2023/05/09 05:28:54;;;;;;;10.90;5.13;;;;;;;9.29;88.12;101443.58;125231;1086;104213;-77
2023/05/09 05:31:23;;;;;;;9.03;5.10;;;;;;;9.32;88.12;101442.02;125346;1086;104459;-78
2023/05/09 05:33:51;;;;;;;12.53;5.30;;;;;;;9.38;88.26;101443.16;125505;1086;104366;-78
2023/05/09 05:36:20;;;;;;;11.27;5.17;;;;;;;9.44;87.73;101449.67;125400;1087;104188;-78
2023/05/09 05:38:50;;;;;;;13.43;5.30;;;;;;;9.48;87.02;101440.25;125305;1087;104355;-78
2023/05/09 05:41:19;;;;;;;13.30;5.30;;;;;;;9.52;86.88;101442.20;125337;1086;104297;-78
2023/05/09 05:43:48;;;;;;;10.47;4.90;;;;;;;9.58;87.62;101444.27;125770;1089;104331;-78
2023/05/09 05:46:17;;;;;;;11.57;4.90;;;;;;;9.62;86.42;101455.00;125320;1089;104247;-80
2023/05/09 05:48:45;;;;;;;10.43;4.63;;;;;;;9.67;87.33;101443.05;125294;1086;104231;-77
2023/05/09 05:51:14;;;;;;;9.13;4.70;;;;;;;9.73;87.43;101450.35;125182;1086;104361;-78
2023/05/09 05:53:43;;;;;;;7.83;4.50;;;;;;;9.78;86.65;101448.87;125047;1086;104647;-77
2023/05/09 05:56:12;;;;;;;11.03;4.53;;;;;;;9.86;87.36;101451.91;125068;1086;104244;-78
2023/05/09 05:58:40;;;;;;;11.47;4.70;;;;;;;9.92;87.14;101457.48;125059;1086;104459;-78
2023/05/09 06:01:09;;;;;;;8.17;4.23;;;;;;;9.97;86.37;101456.03;125340;1089;104414;-79
2023/05/09 06:03:38;;;;;;;10.93;5.20;;;;;;;10.04;85.50;101450.27;125126;1086;104289;-78
2023/05/09 06:06:08;;;;;;;7.53;4.30;;;;;;;10.11;85.83;101456.73;124960;1089;104382;-76
2023/05/09 06:08:37;;;;;;;8.70;4.50;;;;;;;10.15;85.72;101448.22;124938;1086;104698;-78
2023/05/09 06:11:06;;;;;;;10.43;4.60;;;;;;;10.19;85.59;101450.19;125126;1089;104334;-77
2023/05/09 06:13:35;;;;;;;7.27;4.57;;;;;;;10.24;85.83;101453.94;124916;1087;104251;-77
2023/05/09 06:16:07;;;;;;;8.67;4.40;;;;;;;10.31;85.51;101447.28;125147;1086;104334;-78
2023/05/09 06:18:38;;;;;;;10.40;4.23;;;;;;;10.40;85.14;101449.53;125051;1086;104426;-76
2023/05/09 06:21:07;;;;;;;7.93;4.20;;;;;;;10.45;85.21;101452.39;125082;1086;104242;-78
2023/05/09 06:23:36;;;;;;;9.17;4.10;;;;;;;10.45;84.09;101458.53;125021;1086;104260;-77
2023/05/09 06:26:04;;;;;;;6.97;4.27;;;;;;;10.43;83.76;101454.94;125103;1087;104231;-77
2023/05/09 06:28:33;;;;;;;7.40;4.00;;;;;;;10.45;82.98;101455.02;125002;1086;104315;-77
2023/05/09 06:31:01;;;;;;;7.23;3.97;;;;;;;10.47;83.21;101461.23;125048;1086;104369;-77
2023/05/09 06:33:30;;;;;;;6.63;3.70;;;;;;;10.49;83.41;101467.48;125142;1086;104353;-79
2023/05/09 06:36:00;;;;;;;12.57;4.57;;;;;;;10.49;82.96;101463.13;125131;1086;104363;-79
2023/05/09 06:38:28;;;;;;;8.77;4.60;;;;;;;10.54;83.45;101453.75;125417;1086;104184;-80
2023/05/09 06:40:57;;;;;;;6.83;4.00;;;;;;;10.62;83.56;101462.02;125285;1086;104380;-77
2023/05/09 06:43:26;;;;;;;7.63;4.20;;;;;;;10.71;84.05;101458.97;125003;1086;104340;-77
2023/05/09 06:45:54;;;;;;;6.30;3.87;;;;;;;10.77;83.29;101461.91;125056;1086;104485;-78
2023/05/09 06:48:23;;;;;;;8.20;4.10;;;;;;;10.84;82.36;101471.88;125023;1086;104264;-78
2023/05/09 06:50:51;;;;;;;7.73;3.93;;;;;;;10.91;82.97;101460.86;124992;1086;104293;-79
2023/05/09 06:53:20;;;;;;;9.07;3.93;;;;;;;10.95;81.83;101461.90;125144;1086;104869;-80
2023/05/09 06:55:49;;;;;;;8.20;4.10;;;;;;;10.99;81.44;101460.35;125212;1086;104389;-78
2023/05/09 06:58:17;;;;;;;7.10;3.80;;;;;;;11.00;81.22;101465.68;125188;1086;104277;-78
2023/05/09 07:00:46;;;;;;;7.00;3.95;;;;;;;11.02;80.74;101455.25;125084;1086;104287;-79
2023/05/09 07:03:15;;;;;;;9.30;3.90;;;;;;;11.04;80.91;101457.10;125235;1086;104228;-79
2023/05/09 07:05:43;;;;;;;8.93;4.77;;;;;;;11.08;80.87;101463.39;125152;1086;104331;-79
2023/05/09 07:08:12;;;;;;;9.27;4.53;;;;;;;11.09;80.50;101458.22;125181;1086;104331;-78
2023/05/09 07:10:40;;;;;;;8.63;4.27;;;;;;;11.15;81.29;101461.14;125067;1086;104197;-78
2023/05/09 07:13:09;;;;;;;13.10;4.97;;;;;;;11.13;80.50;101457.55;125071;1086;104314;-79
2023/05/09 07:15:37;;;;;;;10.70;4.30;;;;;;;11.09;79.94;101455.59;125043;1086;104209;-78
2023/05/09 07:18:07;;;;;;;11.43;4.53;;;;;;;11.05;79.38;101464.17;125270;1086;104325;-80
2023/05/09 07:20:36;;;;;;;8.50;4.20;;;;;;;11.04;79.78;101461.47;125128;1086;104411;-77
2023/05/09 07:23:04;;;;;;;6.37;4.00;;;;;;;10.98;78.61;101459.43;125190;1086;104241;-79
2023/05/09 07:25:33;;;;;;;11.17;4.60;;;;;;;10.97;79.37;101461.16;125171;1086;104219;-80
2023/05/09 07:28:01;;;;;;;10.67;4.10;;;;;;;10.99;79.15;101458.61;125320;1086;104293;-79
2023/05/09 07:30:30;;;;;;;11.00;4.43;;;;;;;11.04;80.09;101470.23;125292;1086;104337;-79
2023/05/09 07:33:00;;;;;;;7.97;4.40;;;;;;;11.09;79.96;101468.73;125381;1085;104379;-78
2023/05/09 07:35:28;;;;;;;7.67;4.20;;;;;;;11.14;79.48;101464.63;125249;1089;104638;-77
2023/05/09 07:37:57;;;;;;;7.85;4.35;;;;;;;11.17;77.81;101474.36;125098;1086;104241;-78
2023/05/09 07:40:25;;;;;;;11.67;4.53;;;;;;;11.19;78.88;101471.80;124989;1086;104293;-78
2023/05/09 07:42:55;;;;;;;12.47;4.67;;;;;;;11.24;78.18;101475.58;124980;1086;104364;-76
2023/05/09 07:45:24;;;;;;;9.67;4.10;;;;;;;11.30;77.90;101471.52;124969;1086;104330;-77
2023/05/09 07:47:52;;;;;;;8.50;3.80;;;;;;;11.40;75.92;101474.58;125116;1086;104283;-77
2023/05/09 07:50:22;;;;;;;12.37;5.13;;;;;;;11.46;76.76;101475.77;125064;1086;104369;-76
2023/05/09 07:52:51;;;;;;;8.87;4.43;;;;;;;11.54;76.13;101476.13;125172;1086;104159;-77
2023/05/09 07:55:20;;;;;;;9.33;4.10;;;;;;;11.55;76.34;101472.69;124974;1086;104287;-76
2023/05/09 07:57:48;;;;;;;7.53;3.77;;;;;;;11.55;75.10;101472.69;125134;1086;104506;-78
2023/05/09 08:00:22;;;;;;;7.53;3.63;;;;;;;11.48;72.40;101474.13;125092;1086;104187;-76
2023/05/09 08:02:51;;;;;;;10.60;3.85;;;;;;;11.39;72.71;101473.69;125528;1086;104174;-77
2023/05/09 08:05:20;;;;;;;9.55;4.15;;;;;;;11.40;73.11;101474.58;125259;1086;104373;-77
2023/05/09 08:07:48;;;;;;;7.90;4.00;;;;;;;11.46;73.81;101480.13;125135;1086;104945;-77
2023/05/09 08:10:17;;;;;;;7.90;4.00;;;;;;;11.53;74.05;101479.61;125230;1086;104319;-78
2023/05/09 08:12:45;;;;;;;6.47;3.83;;;;;;;11.63;73.98;101478.30;125200;1086;104235;-77
2023/05/09 08:15:14;;;;;;;11.17;4.10;;;;;;;11.71;72.31;101476.04;125114;1086;104258;-79
2023/05/09 08:17:42;;;;;;;8.40;4.00;;;;;;;11.79;72.70;101472.91;125258;1086;104353;-77
2023/05/09 08:20:13;;;;;;;7.87;3.97;;;;;;;11.86;72.86;101469.75;125193;1086;104289;-77
2023/05/09 08:22:41;;;;;;;9.77;4.47;;;;;;;11.94;70.90;101477.14;125258;1086;104366;-77
2023/05/09 08:25:12;;;;;;;7.63;3.80;;;;;;;12.02;72.40;101471.37;125269;1086;104379;-80
2023/05/09 08:27:41;;;;;;;8.35;4.10;;;;;;;12.13;70.85;101478.86;125269;1086;104210;-80
2023/05/09 08:30:12;;;;;;;7.50;3.83;;;;;;;12.13;70.91;101477.13;125275;1086;104633;-78
2023/05/09 08:32:40;;;;;;;10.60;4.07;;;;;;;12.21;71.21;101472.20;125363;1086;104334;-78
2023/05/09 08:35:09;;;;;;;9.25;3.60;;;;;;;12.29;71.21;101480.44;125058;1086;105990;-77
2023/05/09 08:37:38;;;;;;;10.80;4.00;;;;;;;12.32;68.27;101484.09;125295;1086;104213;-75
2023/05/09 08:40:08;;;;;;;8.23;3.80;;;;;;;12.29;68.06;101475.17;125138;1086;104232;-76
2023/05/09 08:42:38;;;;;;;9.27;4.00;;;;;;;12.17;66.20;101476.44;125144;1086;104283;-76
2023/05/09 08:45:10;;;;;;;8.20;3.87;;;;;;;12.26;69.10;101480.30;124986;1086;104373;-78
2023/05/09 08:47:40;;;;;;;8.50;3.83;;;;;;;12.25;66.94;101476.78;125194;1086;104417;-77
2023/05/09 08:50:13;;;;;;;9.43;3.77;;;;;;;12.29;68.12;101469.91;125198;1086;104248;-75
2023/05/09 08:52:42;;;;;;;7.83;4.05;;;;;;;12.29;66.43;101469.91;125162;1086;104241;-77
2023/05/09 08:55:11;;;;;;;9.20;4.20;;;;;;;12.41;67.07;101468.71;125143;1086;104408;-80
2023/05/09 08:57:40;;;;;;;8.73;4.10;;;;;;;12.55;67.55;101457.89;125266;1086;104356;-79
2023/05/09 09:00:14;;;;;;;10.00;4.13;;;;;;;12.68;66.29;101462.83;125233;1089;104392;-78
2023/05/09 09:02:43;;;;;;;7.37;3.83;;;;;;;12.90;66.82;101458.47;125259;1086;104200;-77
2023/05/09 09:05:14;;;;;;;8.77;4.13;;;;;;;13.07;63.48;101464.44;125407;1086;104229;-76
2023/05/09 09:07:44;;;;;;;6.60;3.70;;;;;;;13.24;65.38;101457.21;125213;1086;104293;-76
2023/05/09 09:10:14;;;;;;;9.67;4.00;;;;;;;13.39;65.01;101457.86;125114;1086;104282;-75
2023/05/09 09:12:44;;;;;;;6.50;4.10;;;;;;;13.63;64.22;101449.09;125235;1086;104404;-76
2023/05/09 09:15:19;;;;;;;8.97;3.97;;;;;;;13.82;65.00;101448.05;125091;1086;104372;-77
2023/05/09 09:17:50;;;;;;;9.63;4.10;;;;;;;14.00;65.39;101447.85;124998;1086;104231;-74
2023/05/09 09:20:22;;;;;;;8.97;4.13;;;;;;;14.20;65.38;101448.58;125107;1089;104430;-76
2023/05/09 09:22:54;;;;;;;7.60;3.73;;;;;;;14.28;64.60;101446.22;125183;1086;104318;-75
2023/05/09 09:25:23;;;;;;;8.67;3.97;;;;;;;14.40;63.13;101446.66;124988;1086;104331;-76
2023/05/09 09:27:51;;;;;;;10.43;4.50;;;;;;;14.48;64.26;101439.00;125221;1086;104293;-76
2023/05/09 09:30:24;;;;;;;7.50;4.13;;;;;;;14.54;64.99;101441.85;125188;1086;104379;-76
2023/05/09 09:32:52;;;;;;;8.17;3.97;;;;;;;14.61;64.37;101441.23;125226;1086;104187;-76
2023/05/09 09:35:21;;;;;;;11.15;4.45;;;;;;;14.68;62.25;101437.97;125166;1089;104440;-76
2023/05/09 09:37:55;;;;;;;10.17;4.00;;;;;;;14.52;57.85;101438.23;125235;1089;104210;-75
2023/05/09 09:40:25;;;;;;;8.43;4.00;;;;;;;14.51;59.71;101441.75;125537;1086;104273;-76
2023/05/09 09:42:54;;;;;;;16.03;4.13;;;;;;;14.55;60.27;101433.98;125431;1086;104229;-77
2023/05/09 09:45:22;;;;;;;9.37;3.87;;;;;;;14.59;60.16;101434.97;125123;1086;104286;-76
2023/05/09 09:47:53;;;;;;;17.40;4.80;;;;;;;14.68;60.10;101430.04;124876;1086;104293;-75
2023/05/09 09:50:23;;;;;;;11.13;4.40;;;;;;;14.81;60.25;101430.45;124987;1086;104350;-75
2023/05/09 09:52:54;;;;;;;10.23;4.73;;;;;;;14.81;58.65;101431.34;125108;1086;104241;-75
2023/05/09 09:55:24;;;;;;;10.57;4.47;;;;;;;14.89;60.66;101429.84;125191;1086;104299;-75
2023/05/09 09:57:53;;;;;;;11.57;4.50;;;;;;;14.89;58.69;101418.38;125252;1086;104234;-76
2023/05/09 10:00:29;;;;;;;10.57;4.50;;;;;;;14.92;57.24;101423.77;125184;1085;104231;-77
2023/05/09 10:02:58;;;;;;;8.87;4.00;;;;;;;14.90;57.15;101422.83;125107;1089;104497;-76
2023/05/09 10:05:29;;;;;;;12.20;4.70;;;;;;;14.94;58.84;101411.49;125119;1086;104288;-75
2023/05/09 10:07:59;;;;;;;9.37;4.43;;;;;;;15.06;58.81;101411.89;125120;1086;104295;-76
2023/05/09 10:10:29;;;;;;;10.30;4.10;;;;;;;15.12;57.92;101418.23;125493;1086;104159;-80
2023/05/09 10:12:59;;;;;;;9.93;3.97;;;;;;;15.14;58.04;101413.89;125264;1086;104277;-78
2023/05/09 10:15:30;;;;;;;7.83;4.20;;;;;;;15.25;57.73;101401.89;125224;1086;104630;-77
2023/05/09 10:18:03;;;;;;;11.40;4.23;;;;;;;15.32;57.43;101397.69;125141;1086;105856;-76
2023/05/09 10:20:32;;;;;;;8.80;4.33;;;;;;;15.38;55.93;101403.16;125080;1086;104228;-77
2023/05/09 10:23:02;;;;;;;17.80;4.50;;;;;;;15.39;57.28;101391.73;125303;1086;104353;-79
2023/05/09 10:25:39;;;;;;;11.03;4.80;;;;;;;15.36;56.94;101399.58;125261;1086;104343;-77
2023/05/09 10:28:12;;;;;;;15.47;4.93;;;;;;;15.40;56.11;101397.08;125156;1086;104375;-76
2023/05/09 10:30:53;;;;;;;11.13;4.30;;;;;;;15.36;55.01;101399.58;125142;1085;104296;-77
2023/05/09 10:33:26;;;;;;;7.47;4.00;;;;;;;15.37;54.95;101404.91;125171;1086;104255;-75
2023/05/09 10:35:57;;;;;;;10.03;4.60;;;;;;;15.34;55.39;101393.36;125475;1086;104219;-79
2023/05/09 10:38:26;;;;;;;9.90;4.60;;;;;;;15.33;55.41;101389.80;125337;1086;104369;-77
2023/05/09 10:40:56;;;;;;;12.80;4.23;;;;;;;15.35;55.85;101388.12;125343;1086;104229;-76
2023/05/09 10:43:26;;;;;;;9.77;4.10;;;;;;;15.34;53.64;101396.00;125308;1086;104366;-74
2023/05/09 10:45:55;;;;;;;12.30;4.17;;;;;;;15.27;53.79;101387.88;125327;1087;104510;-76
2023/05/09 10:48:24;;;;;;;7.43;3.87;;;;;;;15.20;53.90;101387.64;125173;1086;104347;-73
2023/05/09 10:50:53;;;;;;;9.97;4.20;;;;;;;15.18;53.85;101384.06;125232;1086;104236;-75
2023/05/09 10:53:23;;;;;;;9.60;4.20;;;;;;;15.13;53.27;101390.94;125042;1089;104392;-76
2023/05/09 10:55:54;;;;;;;10.50;4.73;;;;;;;15.05;55.00;101383.69;125041;1086;104327;-76
2023/05/09 10:58:25;;;;;;;9.27;4.40;;;;;;;15.00;53.83;101384.38;124923;1086;104235;-75
2023/05/09 11:00:55;;;;;;;9.20;4.50;;;;;;;14.91;54.46;101384.97;125359;1086;104286;-77
2023/05/09 11:03:25;;;;;;;8.10;4.07;;;;;;;14.87;54.06;101380.45;125223;1086;104254;-77
2023/05/09 11:05:55;;;;;;;8.37;4.20;;;;;;;14.81;54.65;101380.25;125311;1088;104363;-78
2023/05/09 11:08:25;;;;;;;10.70;3.90;;;;;;;14.69;53.85;101380.73;125430;1086;104305;-80
2023/05/09 11:10:55;;;;;;;9.20;4.47;;;;;;;14.59;54.52;101392.72;125741;1086;104219;-81
2023/05/09 11:13:29;;;;;;;11.55;4.55;;;;;;;14.54;54.13;101389.92;125566;1086;104366;-79
2023/05/09 11:16:11;;;;;;;8.70;4.27;;;;;;;14.49;54.07;101387.95;125496;1086;104264;-79
2023/05/09 11:18:53;;;;;;;11.10;4.20;;;;;;;14.43;55.07;101382.47;126389;1086;104329;-80
2023/05/09 11:21:25;;;;;;;8.67;4.47;;;;;;;14.41;54.08;101392.09;125543;1085;104235;-80